sensor_id;sensor_type;location;lat;lon;timestamp;P1;P2;P0
73973;PMS5003;62336;-26.094;27.994;2023-05-28T00:00:27;22;20;
73973;PMS5003;62336;-26.094;27.994;2023-05-28T00:02:52;25;22;
73973;PMS5003;62336;-26.094;27.994;2023-05-28T00:05:18;23;22;
73973;PMS5003;62336;-26.094;27.994;2023-05-28T00:07:43;22;21;
73973;PMS5003;62336;-26.094;27.994;2023-05-28T00:10:09;26;25;
73973;PMS5003;62336;-26.094;27.994;2023-05-28T00:12:35;28;26;
73973;PMS5003;62336;-26.094;27.994;2023-05-28T00:15:00;25;23;
73973;PMS5003;62336;-26.094;27.994;2023-05-28T00:17:25;29;28;
73973;PMS5003;62336;-26.094;27.994;2023-05-28T00:19:50;27;27;
73973;PMS5003;62336;-26.094;27.994;2023-05-28T00:22:16;23;23;
73973;PMS5003;62336;-26.094;27.994;2023-05-28T00:24:41;22;22;
73973;PMS5003;62336;-26.094;27.994;2023-05-28T00:27:07;25;24;
73973;PMS5003;62336;-26.094;27.994;2023-05-28T00:29:33;32;29;
73973;PMS5003;62336;-26.094;27.994;2023-05-28T00:31:59;25;22;
73973;PMS5003;62336;-26.094;27.994;2023-05-28T00:34:24;26;25;
73973;PMS5003;62336;-26.094;27.994;2023-05-28T00:36:49;26;25;
73973;PMS5003;62336;-26.094;27.994;2023-05-28T00:39:15;25;24;
73973;PMS5003;62336;-26.094;27.994;2023-05-28T00:41:40;26;23;
73973;PMS5003;62336;-26.094;27.994;2023-05-28T00:44:06;26;24;
73973;PMS5003;62336;-26.094;27.994;2023-05-28T00:46:31;29;26;
73973;PMS5003;62336;-26.094;27.994;2023-05-28T00:48:56;30;25;
73973;PMS5003;62336;-26.094;27.994;2023-05-28T00:51:22;25;24;
73973;PMS5003;62336;-26.094;27.994;2023-05-28T00:53:48;23;23;
73973;PMS5003;62336;-26.094;27.994;2023-05-28T00:56:12;26;25;
73973;PMS5003;62336;-26.094;27.994;2023-05-28T00:58:38;26;26;
73973;PMS5003;62336;-26.094;27.994;2023-05-28T01:01:04;28;26;
73973;PMS5003;62336;-26.094;27.994;2023-05-28T01:03:29;28;27;
73973;PMS5003;62336;-26.094;27.994;2023-05-28T01:05:54;25;24;
73973;PMS5003;62336;-26.094;27.994;2023-05-28T01:08:20;29;27;
73973;PMS5003;62336;-26.094;27.994;2023-05-28T01:10:45;26;26;
73973;PMS5003;62336;-26.094;27.994;2023-05-28T01:13:16;24;23;
73973;PMS5003;62336;-26.094;27.994;2023-05-28T01:15:40;26;26;
73973;PMS5003;62336;-26.094;27.994;2023-05-28T01:18:03;26;24;
73973;PMS5003;62336;-26.094;27.994;2023-05-28T01:20:28;24;22;
73973;PMS5003;62336;-26.094;27.994;2023-05-28T01:22:54;24;22;
73973;PMS5003;62336;-26.094;27.994;2023-05-28T01:25:18;24;23;
73973;PMS5003;62336;-26.094;27.994;2023-05-28T01:27:43;28;28;
73973;PMS5003;62336;-26.094;27.994;2023-05-28T01:30:09;29;24;
73973;PMS5003;62336;-26.094;27.994;2023-05-28T01:32:34;31;26;
73973;PMS5003;62336;-26.094;27.994;2023-05-28T01:35:00;28;26;
73973;PMS5003;62336;-26.094;27.994;2023-05-28T01:37:25;27;25;
73973;PMS5003;62336;-26.094;27.994;2023-05-28T01:39:50;27;25;
73973;PMS5003;62336;-26.094;27.994;2023-05-28T01:42:16;27;26;
73973;PMS5003;62336;-26.094;27.994;2023-05-28T01:44:41;27;25;
73973;PMS5003;62336;-26.094;27.994;2023-05-28T01:47:07;29;27;
73973;PMS5003;62336;-26.094;27.994;2023-05-28T01:49:33;25;25;
73973;PMS5003;62336;-26.094;27.994;2023-05-28T01:51:58;31;27;
73973;PMS5003;62336;-26.094;27.994;2023-05-28T01:54:24;26;25;
73973;PMS5003;62336;-26.094;27.994;2023-05-28T01:56:49;27;23;
73973;PMS5003;62336;-26.094;27.994;2023-05-28T01:59:14;27;25;
73973;PMS5003;62336;-26.094;27.994;2023-05-28T02:01:39;20;20;
73973;PMS5003;62336;-26.094;27.994;2023-05-28T02:04:05;25;23;
73973;PMS5003;62336;-26.094;27.994;2023-05-28T02:06:32;25;23;
73973;PMS5003;62336;-26.094;27.994;2023-05-28T02:08:56;26;25;
73973;PMS5003;62336;-26.094;27.994;2023-05-28T02:11:21;28;26;
73973;PMS5003;62336;-26.094;27.994;2023-05-28T02:13:46;27;27;
73973;PMS5003;62336;-26.094;27.994;2023-05-28T02:16:11;29;25;
73973;PMS5003;62336;-26.094;27.994;2023-05-28T02:18:37;23;21;
73973;PMS5003;62336;-26.094;27.994;2023-05-28T02:21:03;24;23;
73973;PMS5003;62336;-26.094;27.994;2023-05-28T02:23:28;21;21;
73973;PMS5003;62336;-26.094;27.994;2023-05-28T02:25:53;24;24;
73973;PMS5003;62336;-26.094;27.994;2023-05-28T02:28:18;23;22;
73973;PMS5003;62336;-26.094;27.994;2023-05-28T02:30:43;25;23;
73973;PMS5003;62336;-26.094;27.994;2023-05-28T02:33:09;24;22;
73973;PMS5003;62336;-26.094;27.994;2023-05-28T02:35:34;23;21;
73973;PMS5003;62336;-26.094;27.994;2023-05-28T02:37:59;23;22;
73973;PMS5003;62336;-26.094;27.994;2023-05-28T02:40:25;26;25;
73973;PMS5003;62336;-26.094;27.994;2023-05-28T02:42:51;25;24;
73973;PMS5003;62336;-26.094;27.994;2023-05-28T02:45:16;25;25;
73973;PMS5003;62336;-26.094;27.994;2023-05-28T02:47:42;24;21;
73973;PMS5003;62336;-26.094;27.994;2023-05-28T02:50:07;22;21;
73973;PMS5003;62336;-26.094;27.994;2023-05-28T02:52:33;20;20;
73973;PMS5003;62336;-26.094;27.994;2023-05-28T02:54:58;21;20;
73973;PMS5003;62336;-26.094;27.994;2023-05-28T02:57:25;21;20;
73973;PMS5003;62336;-26.094;27.994;2023-05-28T02:59:49;19;19;
73973;PMS5003;62336;-26.094;27.994;2023-05-28T03:02:14;20;19;
73973;PMS5003;62336;-26.094;27.994;2023-05-28T03:04:39;25;22;
73973;PMS5003;62336;-26.094;27.994;2023-05-28T03:07:05;24;23;
73973;PMS5003;62336;-26.094;27.994;2023-05-28T03:09:31;23;21;
73973;PMS5003;62336;-26.094;27.994;2023-05-28T03:11:56;21;20;
73973;PMS5003;62336;-26.094;27.994;2023-05-28T03:14:21;22;21;
73973;PMS5003;62336;-26.094;27.994;2023-05-28T03:16:47;25;24;
73973;PMS5003;62336;-26.094;27.994;2023-05-28T03:19:12;22;21;
73973;PMS5003;62336;-26.094;27.994;2023-05-28T03:21:38;25;24;
73973;PMS5003;62336;-26.094;27.994;2023-05-28T03:24:03;20;20;
73973;PMS5003;62336;-26.094;27.994;2023-05-28T03:26:29;20;20;
73973;PMS5003;62336;-26.094;27.994;2023-05-28T03:28:54;25;21;
73973;PMS5003;62336;-26.094;27.994;2023-05-28T03:31:20;19;18;
73973;PMS5003;62336;-26.094;27.994;2023-05-28T03:33:45;18;17;
73973;PMS5003;62336;-26.094;27.994;2023-05-28T03:36:11;23;21;
73973;PMS5003;62336;-26.094;27.994;2023-05-28T03:38:36;22;20;
73973;PMS5003;62336;-26.094;27.994;2023-05-28T03:41:02;24;23;
73973;PMS5003;62336;-26.094;27.994;2023-05-28T03:43:26;19;19;
73973;PMS5003;62336;-26.094;27.994;2023-05-28T03:45:53;23;22;
73973;PMS5003;62336;-26.094;27.994;2023-05-28T03:48:18;26;24;
73973;PMS5003;62336;-26.094;27.994;2023-05-28T03:50:44;25;24;
73973;PMS5003;62336;-26.094;27.994;2023-05-28T03:53:09;22;21;
73973;PMS5003;62336;-26.094;27.994;2023-05-28T03:55:34;23;22;
73973;PMS5003;62336;-26.094;27.994;2023-05-28T03:58:00;24;24;
73973;PMS5003;62336;-26.094;27.994;2023-05-28T04:00:25;24;21;
73973;PMS5003;62336;-26.094;27.994;2023-05-28T04:02:50;23;21;
73973;PMS5003;62336;-26.094;27.994;2023-05-28T04:05:16;21;21;
73973;PMS5003;62336;-26.094;27.994;2023-05-28T04:07:42;24;22;
73973;PMS5003;62336;-26.094;27.994;2023-05-28T04:10:07;22;21;
73973;PMS5003;62336;-26.094;27.994;2023-05-28T04:12:32;23;22;
73973;PMS5003;62336;-26.094;27.994;2023-05-28T04:14:59;26;26;
73973;PMS5003;62336;-26.094;27.994;2023-05-28T04:17:24;25;24;
73973;PMS5003;62336;-26.094;27.994;2023-05-28T04:19:50;26;23;
73973;PMS5003;62336;-26.094;27.994;2023-05-28T04:22:15;23;19;
73973;PMS5003;62336;-26.094;27.994;2023-05-28T04:24:40;24;22;
73973;PMS5003;62336;-26.094;27.994;2023-05-28T04:27:05;20;19;
73973;PMS5003;62336;-26.094;27.994;2023-05-28T04:29:31;28;25;
73973;PMS5003;62336;-26.094;27.994;2023-05-28T04:31:56;24;23;
73973;PMS5003;62336;-26.094;27.994;2023-05-28T04:34:21;24;24;
73973;PMS5003;62336;-26.094;27.994;2023-05-28T04:36:47;24;22;
73973;PMS5003;62336;-26.094;27.994;2023-05-28T04:39:12;23;23;
73973;PMS5003;62336;-26.094;27.994;2023-05-28T04:41:38;28;25;
73973;PMS5003;62336;-26.094;27.994;2023-05-28T04:44:03;26;25;
73973;PMS5003;62336;-26.094;27.994;2023-05-28T04:46:29;26;25;
73973;PMS5003;62336;-26.094;27.994;2023-05-28T04:48:53;24;22;
73973;PMS5003;62336;-26.094;27.994;2023-05-28T04:51:19;23;21;
73973;PMS5003;62336;-26.094;27.994;2023-05-28T04:53:45;23;21;
73973;PMS5003;62336;-26.094;27.994;2023-05-28T04:56:10;25;22;
73973;PMS5003;62336;-26.094;27.994;2023-05-28T04:58:36;22;21;
73973;PMS5003;62336;-26.094;27.994;2023-05-28T05:01:01;30;26;
73973;PMS5003;62336;-26.094;27.994;2023-05-28T05:03:27;23;22;
73973;PMS5003;62336;-26.094;27.994;2023-05-28T05:05:52;24;20;
73973;PMS5003;62336;-26.094;27.994;2023-05-28T05:10:42;22;20;
73973;PMS5003;62336;-26.094;27.994;2023-05-28T05:13:08;29;28;
73973;PMS5003;62336;-26.094;27.994;2023-05-28T05:15:32;23;23;
73973;PMS5003;62336;-26.094;27.994;2023-05-28T05:17:58;22;21;
73973;PMS5003;62336;-26.094;27.994;2023-05-28T05:20:24;21;20;
73973;PMS5003;62336;-26.094;27.994;2023-05-28T05:22:49;28;24;
73973;PMS5003;62336;-26.094;27.994;2023-05-28T05:25:14;21;20;
73973;PMS5003;62336;-26.094;27.994;2023-05-28T05:27:41;23;20;
73973;PMS5003;62336;-26.094;27.994;2023-05-28T05:30:06;26;24;
73973;PMS5003;62336;-26.094;27.994;2023-05-28T05:32:31;23;23;
73973;PMS5003;62336;-26.094;27.994;2023-05-28T05:34:56;20;18;
73973;PMS5003;62336;-26.094;27.994;2023-05-28T05:37:21;25;24;
73973;PMS5003;62336;-26.094;27.994;2023-05-28T05:39:47;27;24;
73973;PMS5003;62336;-26.094;27.994;2023-05-28T05:42:13;19;18;
73973;PMS5003;62336;-26.094;27.994;2023-05-28T05:44:38;21;20;
73973;PMS5003;62336;-26.094;27.994;2023-05-28T05:47:04;24;23;
73973;PMS5003;62336;-26.094;27.994;2023-05-28T05:49:30;24;23;
73973;PMS5003;62336;-26.094;27.994;2023-05-28T05:51:55;28;26;
73973;PMS5003;62336;-26.094;27.994;2023-05-28T05:54:20;26;23;
73973;PMS5003;62336;-26.094;27.994;2023-05-28T05:56:47;24;20;
73973;PMS5003;62336;-26.094;27.994;2023-05-28T05:59:12;23;20;
73973;PMS5003;62336;-26.094;27.994;2023-05-28T06:01:38;19;18;
73973;PMS5003;62336;-26.094;27.994;2023-05-28T06:04:03;27;26;
73973;PMS5003;62336;-26.094;27.994;2023-05-28T06:06:28;20;20;
73973;PMS5003;62336;-26.094;27.994;2023-05-28T06:08:55;22;22;
73973;PMS5003;62336;-26.094;27.994;2023-05-28T06:11:19;23;23;
73973;PMS5003;62336;-26.094;27.994;2023-05-28T06:13:45;19;18;
73973;PMS5003;62336;-26.094;27.994;2023-05-28T06:16:10;24;21;
73973;PMS5003;62336;-26.094;27.994;2023-05-28T06:18:36;20;18;
73973;PMS5003;62336;-26.094;27.994;2023-05-28T06:21:02;20;19;
73973;PMS5003;62336;-26.094;27.994;2023-05-28T06:23:28;18;18;
73973;PMS5003;62336;-26.094;27.994;2023-05-28T06:25:53;19;16;
73973;PMS5003;62336;-26.094;27.994;2023-05-28T06:28:20;23;22;
73973;PMS5003;62336;-26.094;27.994;2023-05-28T06:30:44;18;17;
73973;PMS5003;62336;-26.094;27.994;2023-05-28T06:33:09;19;18;
73973;PMS5003;62336;-26.094;27.994;2023-05-28T06:35:35;21;19;
73973;PMS5003;62336;-26.094;27.994;2023-05-28T06:38:03;23;22;
73973;PMS5003;62336;-26.094;27.994;2023-05-28T06:40:26;20;19;
73973;PMS5003;62336;-26.094;27.994;2023-05-28T06:42:51;16;16;
73973;PMS5003;62336;-26.094;27.994;2023-05-28T06:45:16;18;18;
73973;PMS5003;62336;-26.094;27.994;2023-05-28T06:47:42;17;17;
73973;PMS5003;62336;-26.094;27.994;2023-05-28T06:50:07;21;19;
73973;PMS5003;62336;-26.094;27.994;2023-05-28T06:52:32;20;19;
73973;PMS5003;62336;-26.094;27.994;2023-05-28T06:54:57;22;21;
73973;PMS5003;62336;-26.094;27.994;2023-05-28T06:57:22;17;17;
73973;PMS5003;62336;-26.094;27.994;2023-05-28T06:59:47;21;18;
73973;PMS5003;62336;-26.094;27.994;2023-05-28T07:02:13;20;18;
73973;PMS5003;62336;-26.094;27.994;2023-05-28T07:04:38;17;16;
73973;PMS5003;62336;-26.094;27.994;2023-05-28T07:07:03;23;21;
73973;PMS5003;62336;-26.094;27.994;2023-05-28T07:09:29;21;19;
73973;PMS5003;62336;-26.094;27.994;2023-05-28T07:11:54;21;20;
73973;PMS5003;62336;-26.094;27.994;2023-05-28T07:14:20;20;17;
73973;PMS5003;62336;-26.094;27.994;2023-05-28T07:16:45;19;18;
73973;PMS5003;62336;-26.094;27.994;2023-05-28T07:19:11;19;18;
73973;PMS5003;62336;-26.094;27.994;2023-05-28T07:21:36;16;16;
73973;PMS5003;62336;-26.094;27.994;2023-05-28T07:24:02;21;19;
73973;PMS5003;62336;-26.094;27.994;2023-05-28T07:26:27;22;20;
73973;PMS5003;62336;-26.094;27.994;2023-05-28T07:28:52;20;20;
73973;PMS5003;62336;-26.094;27.994;2023-05-28T07:31:18;20;19;
73973;PMS5003;62336;-26.094;27.994;2023-05-28T07:33:44;21;20;
73973;PMS5003;62336;-26.094;27.994;2023-05-28T07:36:09;18;18;
73973;PMS5003;62336;-26.094;27.994;2023-05-28T07:38:34;20;20;
73973;PMS5003;62336;-26.094;27.994;2023-05-28T07:41:00;19;17;
73973;PMS5003;62336;-26.094;27.994;2023-05-28T07:43:26;20;19;
73973;PMS5003;62336;-26.094;27.994;2023-05-28T07:45:51;17;15;
73973;PMS5003;62336;-26.094;27.994;2023-05-28T07:48:16;17;16;
73973;PMS5003;62336;-26.094;27.994;2023-05-28T07:50:42;15;15;
73973;PMS5003;62336;-26.094;27.994;2023-05-28T07:53:07;17;17;
73973;PMS5003;62336;-26.094;27.994;2023-05-28T07:55:32;18;17;
73973;PMS5003;62336;-26.094;27.994;2023-05-28T07:57:58;19;16;
73973;PMS5003;62336;-26.094;27.994;2023-05-28T08:00:24;18;16;
73973;PMS5003;62336;-26.094;27.994;2023-05-28T08:02:49;18;16;
73973;PMS5003;62336;-26.094;27.994;2023-05-28T08:05:14;18;17;
73973;PMS5003;62336;-26.094;27.994;2023-05-28T08:07:40;17;17;
73973;PMS5003;62336;-26.094;27.994;2023-05-28T08:10:05;14;14;
73973;PMS5003;62336;-26.094;27.994;2023-05-28T08:12:30;15;15;
73973;PMS5003;62336;-26.094;27.994;2023-05-28T08:14:55;22;19;
73973;PMS5003;62336;-26.094;27.994;2023-05-28T08:17:21;15;15;
73973;PMS5003;62336;-26.094;27.994;2023-05-28T08:19:46;19;18;
73973;PMS5003;62336;-26.094;27.994;2023-05-28T08:22:12;18;17;
73973;PMS5003;62336;-26.094;27.994;2023-05-28T08:24:38;19;18;
73973;PMS5003;62336;-26.094;27.994;2023-05-28T08:27:03;19;19;
73973;PMS5003;62336;-26.094;27.994;2023-05-28T08:29:29;19;19;
73973;PMS5003;62336;-26.094;27.994;2023-05-28T08:31:53;19;17;
73973;PMS5003;62336;-26.094;27.994;2023-05-28T08:34:19;19;18;
73973;PMS5003;62336;-26.094;27.994;2023-05-28T08:36:44;18;17;
73973;PMS5003;62336;-26.094;27.994;2023-05-28T08:39:09;23;22;
73973;PMS5003;62336;-26.094;27.994;2023-05-28T08:41:35;25;23;
73973;PMS5003;62336;-26.094;27.994;2023-05-28T08:44:01;18;16;
73973;PMS5003;62336;-26.094;27.994;2023-05-28T08:46:26;19;19;
73973;PMS5003;62336;-26.094;27.994;2023-05-28T08:48:51;25;23;
73973;PMS5003;62336;-26.094;27.994;2023-05-28T08:51:17;17;17;
73973;PMS5003;62336;-26.094;27.994;2023-05-28T08:53:43;19;18;
73973;PMS5003;62336;-26.094;27.994;2023-05-28T08:56:08;19;17;
73973;PMS5003;62336;-26.094;27.994;2023-05-28T08:58:34;18;17;
73973;PMS5003;62336;-26.094;27.994;2023-05-28T09:00:59;18;16;
73973;PMS5003;62336;-26.094;27.994;2023-05-28T09:03:24;21;19;
73973;PMS5003;62336;-26.094;27.994;2023-05-28T09:05:50;16;15;
73973;PMS5003;62336;-26.094;27.994;2023-05-28T09:08:15;18;18;
73973;PMS5003;62336;-26.094;27.994;2023-05-28T09:10:41;20;19;
73973;PMS5003;62336;-26.094;27.994;2023-05-28T09:13:06;19;18;
73973;PMS5003;62336;-26.094;27.994;2023-05-28T09:15:33;19;18;
73973;PMS5003;62336;-26.094;27.994;2023-05-28T09:17:58;16;16;
73973;PMS5003;62336;-26.094;27.994;2023-05-28T09:20:23;20;19;
73973;PMS5003;62336;-26.094;27.994;2023-05-28T09:25:14;19;16;
73973;PMS5003;62336;-26.094;27.994;2023-05-28T09:27:40;20;19;
73973;PMS5003;62336;-26.094;27.994;2023-05-28T09:30:05;16;16;
73973;PMS5003;62336;-26.094;27.994;2023-05-28T09:32:30;17;16;
73973;PMS5003;62336;-26.094;27.994;2023-05-28T09:34:56;20;19;
73973;PMS5003;62336;-26.094;27.994;2023-05-28T09:37:21;19;18;
73973;PMS5003;62336;-26.094;27.994;2023-05-28T09:39:47;15;15;
73973;PMS5003;62336;-26.094;27.994;2023-05-28T09:42:12;22;21;
73973;PMS5003;62336;-26.094;27.994;2023-05-28T09:44:38;20;17;
73973;PMS5003;62336;-26.094;27.994;2023-05-28T09:49:29;17;16;
73973;PMS5003;62336;-26.094;27.994;2023-05-28T09:51:56;17;17;
73973;PMS5003;62336;-26.094;27.994;2023-05-28T09:54:19;18;17;
73973;PMS5003;62336;-26.094;27.994;2023-05-28T09:56:44;18;17;
73973;PMS5003;62336;-26.094;27.994;2023-05-28T09:59:10;16;16;
73973;PMS5003;62336;-26.094;27.994;2023-05-28T10:01:37;18;18;
73973;PMS5003;62336;-26.094;27.994;2023-05-28T10:04:02;16;16;
73973;PMS5003;62336;-26.094;27.994;2023-05-28T10:06:26;19;19;
73973;PMS5003;62336;-26.094;27.994;2023-05-28T10:08:52;19;18;
73973;PMS5003;62336;-26.094;27.994;2023-05-28T10:11:19;14;14;
73973;PMS5003;62336;-26.094;27.994;2023-05-28T10:13:42;21;18;
73973;PMS5003;62336;-26.094;27.994;2023-05-28T10:16:08;16;15;
73973;PMS5003;62336;-26.094;27.994;2023-05-28T10:18:35;17;17;
73973;PMS5003;62336;-26.094;27.994;2023-05-28T10:20:58;12;12;
73973;PMS5003;62336;-26.094;27.994;2023-05-28T10:23:24;13;12;
73973;PMS5003;62336;-26.094;27.994;2023-05-28T10:25:50;16;16;
73973;PMS5003;62336;-26.094;27.994;2023-05-28T10:28:15;14;12;
73973;PMS5003;62336;-26.094;27.994;2023-05-28T10:30:41;15;15;
73973;PMS5003;62336;-26.094;27.994;2023-05-28T10:33:06;17;16;
73973;PMS5003;62336;-26.094;27.994;2023-05-28T10:35:32;16;14;
73973;PMS5003;62336;-26.094;27.994;2023-05-28T10:38:03;15;13;
73973;PMS5003;62336;-26.094;27.994;2023-05-28T10:40:23;18;17;
73973;PMS5003;62336;-26.094;27.994;2023-05-28T10:42:48;17;16;
73973;PMS5003;62336;-26.094;27.994;2023-05-28T10:45:13;18;18;
73973;PMS5003;62336;-26.094;27.994;2023-05-28T10:47:39;17;15;
73973;PMS5003;62336;-26.094;27.994;2023-05-28T10:50:11;13;13;
73973;PMS5003;62336;-26.094;27.994;2023-05-28T10:52:31;13;13;
73973;PMS5003;62336;-26.094;27.994;2023-05-28T10:54:55;14;13;
73973;PMS5003;62336;-26.094;27.994;2023-05-28T10:57:21;12;12;
73973;PMS5003;62336;-26.094;27.994;2023-05-28T10:59:47;20;14;
73973;PMS5003;62336;-26.094;27.994;2023-05-28T11:02:11;12;12;
73973;PMS5003;62336;-26.094;27.994;2023-05-28T11:04:37;18;17;
73973;PMS5003;62336;-26.094;27.994;2023-05-28T11:07:04;16;15;
73973;PMS5003;62336;-26.094;27.994;2023-05-28T11:09:28;17;15;
73973;PMS5003;62336;-26.094;27.994;2023-05-28T11:11:57;17;14;
73973;PMS5003;62336;-26.094;27.994;2023-05-28T11:14:20;13;13;
73973;PMS5003;62336;-26.094;27.994;2023-05-28T11:16:45;12;11;
73973;PMS5003;62336;-26.094;27.994;2023-05-28T11:19:10;15;12;
73973;PMS5003;62336;-26.094;27.994;2023-05-28T11:24:01;15;15;
73973;PMS5003;62336;-26.094;27.994;2023-05-28T11:26:26;13;13;
73973;PMS5003;62336;-26.094;27.994;2023-05-28T11:28:52;14;12;
73973;PMS5003;62336;-26.094;27.994;2023-05-28T11:31:18;13;13;
73973;PMS5003;62336;-26.094;27.994;2023-05-28T11:33:44;12;11;
73973;PMS5003;62336;-26.094;27.994;2023-05-28T11:36:09;19;17;
73973;PMS5003;62336;-26.094;27.994;2023-05-28T11:38:35;17;16;
73973;PMS5003;62336;-26.094;27.994;2023-05-28T11:41:00;15;13;
73973;PMS5003;62336;-26.094;27.994;2023-05-28T11:43:26;17;17;
73973;PMS5003;62336;-26.094;27.994;2023-05-28T11:45:51;17;15;
73973;PMS5003;62336;-26.094;27.994;2023-05-28T11:48:16;15;15;
73973;PMS5003;62336;-26.094;27.994;2023-05-28T11:50:42;15;14;
73973;PMS5003;62336;-26.094;27.994;2023-05-28T11:53:07;15;15;
73973;PMS5003;62336;-26.094;27.994;2023-05-28T11:55:33;17;16;
73973;PMS5003;62336;-26.094;27.994;2023-05-28T11:57:58;16;15;
73973;PMS5003;62336;-26.094;27.994;2023-05-28T12:02:51;15;15;
73973;PMS5003;62336;-26.094;27.994;2023-05-28T12:05:16;17;16;
73973;PMS5003;62336;-26.094;27.994;2023-05-28T12:07:44;15;15;
73973;PMS5003;62336;-26.094;27.994;2023-05-28T12:10:07;16;14;
73973;PMS5003;62336;-26.094;27.994;2023-05-28T12:12:32;13;11;
73973;PMS5003;62336;-26.094;27.994;2023-05-28T12:14:57;19;18;
73973;PMS5003;62336;-26.094;27.994;2023-05-28T12:17:22;16;16;
73973;PMS5003;62336;-26.094;27.994;2023-05-28T12:19:48;16;15;
73973;PMS5003;62336;-26.094;27.994;2023-05-28T12:22:13;19;16;
73973;PMS5003;62336;-26.094;27.994;2023-05-28T12:24:38;18;16;
73973;PMS5003;62336;-26.094;27.994;2023-05-28T12:27:04;17;16;
73973;PMS5003;62336;-26.094;27.994;2023-05-28T12:29:29;18;16;
73973;PMS5003;62336;-26.094;27.994;2023-05-28T12:31:58;17;17;
73973;PMS5003;62336;-26.094;27.994;2023-05-28T12:34:19;13;13;
73973;PMS5003;62336;-26.094;27.994;2023-05-28T12:36:44;13;13;
73973;PMS5003;62336;-26.094;27.994;2023-05-28T12:39:09;15;15;
73973;PMS5003;62336;-26.094;27.994;2023-05-28T12:41:35;13;13;
73973;PMS5003;62336;-26.094;27.994;2023-05-28T12:44:00;16;16;
73973;PMS5003;62336;-26.094;27.994;2023-05-28T12:46:25;15;14;
73973;PMS5003;62336;-26.094;27.994;2023-05-28T12:48:51;15;15;
73973;PMS5003;62336;-26.094;27.994;2023-05-28T12:51:17;16;13;
73973;PMS5003;62336;-26.094;27.994;2023-05-28T12:53:42;13;12;
73973;PMS5003;62336;-26.094;27.994;2023-05-28T12:56:08;14;13;
73973;PMS5003;62336;-26.094;27.994;2023-05-28T12:58:33;17;16;
73973;PMS5003;62336;-26.094;27.994;2023-05-28T13:00:58;15;15;
73973;PMS5003;62336;-26.094;27.994;2023-05-28T13:03:23;17;14;
73973;PMS5003;62336;-26.094;27.994;2023-05-28T13:05:48;16;14;
73973;PMS5003;62336;-26.094;27.994;2023-05-28T13:08:14;19;17;
73973;PMS5003;62336;-26.094;27.994;2023-05-28T13:10:39;19;17;
73973;PMS5003;62336;-26.094;27.994;2023-05-28T13:13:05;19;17;
73973;PMS5003;62336;-26.094;27.994;2023-05-28T13:15:30;18;18;
73973;PMS5003;62336;-26.094;27.994;2023-05-28T13:17:57;17;17;
73973;PMS5003;62336;-26.094;27.994;2023-05-28T13:20:22;16;16;
73973;PMS5003;62336;-26.094;27.994;2023-05-28T13:22:48;18;17;
73973;PMS5003;62336;-26.094;27.994;2023-05-28T13:30:04;20;18;
73973;PMS5003;62336;-26.094;27.994;2023-05-28T13:32:29;18;18;
73973;PMS5003;62336;-26.094;27.994;2023-05-28T13:34:54;22;21;
73973;PMS5003;62336;-26.094;27.994;2023-05-28T13:37:20;18;18;
73973;PMS5003;62336;-26.094;27.994;2023-05-28T13:39:45;21;19;
73973;PMS5003;62336;-26.094;27.994;2023-05-28T13:42:11;22;19;
73973;PMS5003;62336;-26.094;27.994;2023-05-28T13:44:37;23;23;
73973;PMS5003;62336;-26.094;27.994;2023-05-28T13:47:01;22;21;
73973;PMS5003;62336;-26.094;27.994;2023-05-28T13:49:27;23;22;
73973;PMS5003;62336;-26.094;27.994;2023-05-28T13:51:52;25;23;
73973;PMS5003;62336;-26.094;27.994;2023-05-28T13:54:17;27;23;
73973;PMS5003;62336;-26.094;27.994;2023-05-28T13:56:42;24;21;
73973;PMS5003;62336;-26.094;27.994;2023-05-28T13:59:08;22;21;
73973;PMS5003;62336;-26.094;27.994;2023-05-28T14:01:33;22;22;
73973;PMS5003;62336;-26.094;27.994;2023-05-28T14:03:58;24;23;
73973;PMS5003;62336;-26.094;27.994;2023-05-28T14:06:25;22;20;
73973;PMS5003;62336;-26.094;27.994;2023-05-28T14:08:49;18;18;
73973;PMS5003;62336;-26.094;27.994;2023-05-28T14:11:14;19;18;
73973;PMS5003;62336;-26.094;27.994;2023-05-28T14:13:39;20;19;
73973;PMS5003;62336;-26.094;27.994;2023-05-28T14:16:05;20;20;
73973;PMS5003;62336;-26.094;27.994;2023-05-28T14:18:31;16;16;
73973;PMS5003;62336;-26.094;27.994;2023-05-28T14:20:56;16;16;
73973;PMS5003;62336;-26.094;27.994;2023-05-28T14:23:21;21;20;
73973;PMS5003;62336;-26.094;27.994;2023-05-28T14:25:46;18;17;
73973;PMS5003;62336;-26.094;27.994;2023-05-28T14:28:12;19;18;
73973;PMS5003;62336;-26.094;27.994;2023-05-28T14:30:36;15;15;
73973;PMS5003;62336;-26.094;27.994;2023-05-28T14:33:01;19;18;
73973;PMS5003;62336;-26.094;27.994;2023-05-28T14:35:27;18;17;
73973;PMS5003;62336;-26.094;27.994;2023-05-28T14:37:52;21;20;
73973;PMS5003;62336;-26.094;27.994;2023-05-28T14:40:17;19;19;
73973;PMS5003;62336;-26.094;27.994;2023-05-28T14:42:42;19;18;
73973;PMS5003;62336;-26.094;27.994;2023-05-28T14:45:08;20;18;
73973;PMS5003;62336;-26.094;27.994;2023-05-28T14:47:33;18;17;
73973;PMS5003;62336;-26.094;27.994;2023-05-28T14:49:59;20;18;
73973;PMS5003;62336;-26.094;27.994;2023-05-28T14:52:24;20;20;
73973;PMS5003;62336;-26.094;27.994;2023-05-28T14:54:50;22;22;
73973;PMS5003;62336;-26.094;27.994;2023-05-28T14:57:16;21;21;
73973;PMS5003;62336;-26.094;27.994;2023-05-28T14:59:40;19;19;
73973;PMS5003;62336;-26.094;27.994;2023-05-28T15:02:05;21;20;
73973;PMS5003;62336;-26.094;27.994;2023-05-28T15:04:31;22;22;
73973;PMS5003;62336;-26.094;27.994;2023-05-28T15:06:57;26;25;
73973;PMS5003;62336;-26.094;27.994;2023-05-28T15:09:22;26;26;
73973;PMS5003;62336;-26.094;27.994;2023-05-28T15:11:49;22;20;
73973;PMS5003;62336;-26.094;27.994;2023-05-28T15:14:13;24;21;
73973;PMS5003;62336;-26.094;27.994;2023-05-28T15:16:38;20;20;
73973;PMS5003;62336;-26.094;27.994;2023-05-28T15:19:04;22;20;
73973;PMS5003;62336;-26.094;27.994;2023-05-28T15:21:29;31;29;
73973;PMS5003;62336;-26.094;27.994;2023-05-28T15:23:55;31;31;
73973;PMS5003;62336;-26.094;27.994;2023-05-28T15:26:20;28;25;
73973;PMS5003;62336;-26.094;27.994;2023-05-28T15:28:46;26;24;
73973;PMS5003;62336;-26.094;27.994;2023-05-28T15:31:11;25;24;
73973;PMS5003;62336;-26.094;27.994;2023-05-28T15:33:37;29;28;
73973;PMS5003;62336;-26.094;27.994;2023-05-28T15:36:03;28;27;
73973;PMS5003;62336;-26.094;27.994;2023-05-28T15:38:28;33;32;
73973;PMS5003;62336;-26.094;27.994;2023-05-28T15:40:54;29;29;
73973;PMS5003;62336;-26.094;27.994;2023-05-28T15:43:19;29;28;
73973;PMS5003;62336;-26.094;27.994;2023-05-28T15:45:44;28;27;
73973;PMS5003;62336;-26.094;27.994;2023-05-28T15:48:10;33;32;
73973;PMS5003;62336;-26.094;27.994;2023-05-28T15:50:35;34;31;